Time;durP1;ratioP1;P1;durP2;ratioP2;P2;SDS_P1;SDS_P2;PMS_P1;PMS_P2;Temp;Humidity;BMP_temperature;BMP_pressure;BME280_temperature;BME280_humidity;BME280_pressure;Samples;Min_cycle;Max_cycle;Signal;HPM_P1;HPM_P2
2023/12/05 00:02:11;;;;;;;;;;;;;;;-140.72;100.00;56812.75;5092857;28;20305;-73
2023/12/05 00:04:37;;;;;;;;;;;;;;;-140.72;100.00;56818.84;5082239;28;20297;-73
2023/12/05 00:07:02;;;;;;;;;;;;;;;-140.72;100.00;56806.66;5096243;28;20022;-73
2023/12/05 00:09:27;;;;;;;;;;;;;;;-140.72;100.00;56835.09;5082938;28;20064;-73
2023/12/05 00:11:53;;;;;;;;;;;;;;;-140.72;100.00;56829.00;5084842;28;19920;-73
2023/12/05 00:14:18;;;;;;;;;;;;;;;-140.72;100.00;56835.09;5101361;28;19927;-73
2023/12/05 00:16:43;;;;;;;;;;;;;;;-140.72;100.00;56808.69;5076401;28;19920;-72
2023/12/05 00:19:09;;;;;;;;;;;;;;;-140.72;100.00;56845.25;5095984;28;20002;-73
2023/12/05 00:21:34;;;;;;;;;;;;;;;-140.72;100.00;56798.53;5098358;28;19939;-73
2023/12/05 00:23:59;;;;;;;;;;;;;;;-140.72;100.00;56822.91;5099945;28;20014;-73
2023/12/05 00:26:24;;;;;;;;;;;;;;;-140.72;100.00;56810.72;5099980;28;20406;-73
2023/12/05 00:28:50;;;;;;;;;;;;;;;-140.72;100.00;56831.03;5097346;28;19988;-73
2023/12/05 00:31:15;;;;;;;;;;;;;;;-140.72;100.00;56812.75;5081270;28;19924;-72
2023/12/05 00:33:40;;;;;;;;;;;;;;;-140.72;100.00;56812.75;5086269;28;19989;-72
2023/12/05 00:36:05;;;;;;;;;;;;;;;-140.72;100.00;56810.72;5098808;28;19959;-73
2023/12/05 00:38:31;;;;;;;;;;;;;;;-140.72;100.00;56772.13;5102905;28;20002;-72
2023/12/05 00:40:59;;;;;;;;;;;;;;;-140.72;100.00;56800.56;5106199;28;19928;-72
2023/12/05 00:43:24;;;;;;;;;;;;;;;-140.72;100.00;56829.00;5099630;28;20012;-72
2023/12/05 00:45:49;;;;;;;;;;;;;;;-140.72;100.00;56780.25;5091225;28;19921;-72
2023/12/05 00:48:15;;;;;;;;;;;;;;;-140.72;100.00;56782.28;5102565;28;19919;-73
2023/12/05 00:50:40;;;;;;;;;;;;;;;-140.72;100.00;56753.84;5103434;28;19992;-73
2023/12/05 00:53:05;;;;;;;;;;;;;;;-140.72;100.00;56772.13;5075110;28;19927;-73
2023/12/05 00:55:30;;;;;;;;;;;;;;;-140.72;100.00;56772.13;5080172;28;19921;-73
2023/12/05 00:57:56;;;;;;;;;;;;;;;-140.72;100.00;56784.31;5083111;28;20305;-72
2023/12/05 01:00:21;;;;;;;;;;;;;;;-140.72;100.00;56772.13;5073323;28;19928;-72
2023/12/05 01:02:46;;;;;;;;;;;;;;;-140.72;100.00;56784.31;5076469;28;19989;-72
2023/12/05 01:05:12;;;;;;;;;;;;;;;-140.72;100.00;56772.13;5095015;28;19928;-73
2023/12/05 01:07:37;;;;;;;;;;;;;;;-140.72;100.00;56759.94;5073644;28;19921;-72
2023/12/05 01:10:02;;;;;;;;;;;;;;;-140.72;100.00;56747.75;5067364;28;19920;-73
2023/12/05 01:12:28;;;;;;;;;;;;;;;-140.72;100.00;56755.88;5079699;28;19931;-73
2023/12/05 01:14:53;;;;;;;;;;;;;;;-140.72;100.00;56766.03;5089977;28;19927;-73
2023/12/05 01:17:18;;;;;;;;;;;;;;;-140.72;100.00;56792.44;5078654;28;19920;-73
2023/12/05 01:19:44;;;;;;;;;;;;;;;-140.72;100.00;56735.56;5078585;28;19928;-73
2023/12/05 01:22:09;;;;;;;;;;;;;;;-140.72;100.00;56794.47;5075159;28;19920;-73
2023/12/05 01:24:35;;;;;;;;;;;;;;;-140.72;100.00;56743.69;5077660;28;20454;-73
2023/12/05 01:27:00;;;;;;;;;;;;;;;-140.72;100.00;56739.63;5074658;28;19927;-73
2023/12/05 01:29:25;;;;;;;;;;;;;;;-140.72;100.00;56731.50;5076193;28;19966;-74
2023/12/05 01:31:50;;;;;;;;;;;;;;;-140.72;100.00;56759.94;5084740;28;19974;-73
2023/12/05 01:34:16;;;;;;;;;;;;;;;-140.72;100.00;56713.22;5101424;28;20125;-73
2023/12/05 01:36:42;;;;;;;;;;;;;;;-140.72;100.00;56747.75;5080711;28;19973;-74
2023/12/05 01:39:08;;;;;;;;;;;;;;;-140.72;100.00;56729.47;5083160;28;19926;-73
2023/12/05 01:41:33;;;;;;;;;;;;;;;-140.72;100.00;56703.06;5081265;28;19921;-73
2023/12/05 01:43:58;;;;;;;;;;;;;;;-140.72;100.00;56715.25;5085615;28;20374;-74
2023/12/05 01:46:24;;;;;;;;;;;;;;;-140.72;100.00;56725.41;5086882;28;19927;-73
2023/12/05 01:48:49;;;;;;;;;;;;;;;-140.72;100.00;56717.28;5085165;28;19921;-73
2023/12/05 01:51:15;;;;;;;;;;;;;;;-140.72;100.00;56709.16;5086400;28;19947;-73
2023/12/05 01:53:42;;;;;;;;;;;;;;;-140.72;100.00;56737.59;5083942;28;19920;-73
2023/12/05 01:56:08;;;;;;;;;;;;;;;-140.72;100.00;56686.81;5079756;28;19928;-73
2023/12/05 01:58:34;;;;;;;;;;;;;;;-140.72;100.00;56688.84;5076652;28;20065;-74
2023/12/05 02:01:00;;;;;;;;;;;;;;;-140.72;100.00;56666.50;5078293;28;20043;-73
2023/12/05 02:03:25;;;;;;;;;;;;;;;-140.72;100.00;56690.88;5081617;28;19928;-72
2023/12/05 02:05:50;;;;;;;;;;;;;;;-140.72;100.00;56703.06;5082008;28;19927;-72
2023/12/05 02:08:18;;;;;;;;;;;;;;;-140.72;100.00;56660.41;5070484;28;19921;-72
2023/12/05 02:10:43;;;;;;;;;;;;;;;-140.72;100.00;56707.13;5078240;28;20366;-73
2023/12/05 02:13:09;;;;;;;;;;;;;;;-140.72;100.00;56694.94;5079681;28;19926;-73
2023/12/05 02:15:35;;;;;;;;;;;;;;;-140.72;100.00;56725.41;5082807;28;20061;-73
2023/12/05 02:18:08;;;;;;;;;;;;;;;-140.72;100.00;56709.16;5075539;28;20380;-73
2023/12/05 02:20:42;;;;;;;;;;;;;;;-140.72;100.00;56713.22;5081175;28;20277;-72
2023/12/05 02:23:16;;;;;;;;;;;;;;;-140.72;100.00;56701.03;5075975;28;20387;-73
2023/12/05 02:25:45;;;;;;;;;;;;;;;-140.72;100.00;56707.13;5078472;28;20269;-73
2023/12/05 02:28:10;;;;;;;;;;;;;;;-140.72;100.00;56680.72;5074404;28;20342;-73
2023/12/05 02:30:36;;;;;;;;;;;;;;;-140.72;100.00;56696.97;5101268;28;20007;-73
2023/12/05 02:33:01;;;;;;;;;;;;;;;-140.72;100.00;56678.69;5076012;28;19921;-73
2023/12/05 02:35:27;;;;;;;;;;;;;;;-140.72;100.00;56731.50;5079603;28;19920;-73
2023/12/05 02:38:18;;;;;;;;;;;;;;;-140.72;100.00;56717.28;5088427;28;19966;-73
2023/12/05 02:41:07;;;;;;;;;;;;;;;-140.72;100.00;56711.19;5071394;28;19981;-74
2023/12/05 02:43:36;;;;;;;;;;;;;;;-140.72;100.00;56707.13;5079326;28;20355;-73
2023/12/05 02:46:02;;;;;;;;;;;;;;;-140.72;100.00;56678.69;5091295;28;19971;-74
2023/12/05 02:48:28;;;;;;;;;;;;;;;-140.72;100.00;56668.50;5081778;28;19974;-73
2023/12/05 02:50:53;;;;;;;;;;;;;;;-140.72;100.00;56658.38;5070357;28;19932;-73
2023/12/05 02:53:19;;;;;;;;;;;;;;;-140.72;100.00;56676.66;5100878;28;19919;-73
2023/12/05 02:55:46;;;;;;;;;;;;;;;-140.72;100.00;56662.41;5097478;28;19923;-73
2023/12/05 02:58:11;;;;;;;;;;;;;;;-140.72;100.00;56678.69;5099206;28;20377;-73
2023/12/05 03:00:37;;;;;;;;;;;;;;;-140.72;100.00;56648.22;5097225;28;19920;-73
2023/12/05 03:03:02;;;;;;;;;;;;;;;-140.72;100.00;56680.72;5097107;28;19928;-73
2023/12/05 03:05:27;;;;;;;;;;;;;;;-140.72;100.00;56646.19;5079117;28;19920;-73
2023/12/05 03:07:52;;;;;;;;;;;;;;;-140.72;100.00;56688.84;5099028;28;19980;-73
2023/12/05 03:10:18;;;;;;;;;;;;;;;-140.72;100.00;56652.28;5105128;28;19919;-73
2023/12/05 03:12:43;;;;;;;;;;;;;;;-140.72;100.00;56666.50;5097625;28;19958;-74
2023/12/05 03:15:08;;;;;;;;;;;;;;;-140.72;100.00;56674.63;5099668;28;19934;-73
2023/12/05 03:17:33;;;;;;;;;;;;;;;-140.72;100.00;56662.41;5099861;28;19920;-74
2023/12/05 03:19:59;;;;;;;;;;;;;;;-140.72;100.00;56621.81;5101842;28;20709;-74
2023/12/05 03:22:24;;;;;;;;;;;;;;;-140.72;100.00;56668.50;5101070;28;19931;-73
2023/12/05 03:24:50;;;;;;;;;;;;;;;-140.72;100.00;56642.09;5097638;28;19920;-73
2023/12/05 03:27:15;;;;;;;;;;;;;;;-140.72;100.00;56686.81;5080741;28;19927;-73
2023/12/05 03:29:40;;;;;;;;;;;;;;;-140.72;100.00;56684.78;5078303;28;19986;-73
2023/12/05 03:32:06;;;;;;;;;;;;;;;-140.72;100.00;56660.41;5101590;28;20003;-74
2023/12/05 03:34:31;;;;;;;;;;;;;;;-140.72;100.00;56662.41;5099267;28;20010;-73
2023/12/05 03:36:56;;;;;;;;;;;;;;;-140.72;100.00;56684.78;5083268;28;19920;-73
2023/12/05 03:39:21;;;;;;;;;;;;;;;-140.72;100.00;56674.63;5105309;28;19967;-73
2023/12/05 03:41:47;;;;;;;;;;;;;;;-140.72;100.00;56650.22;5096781;28;20015;-74
2023/12/05 03:44:12;;;;;;;;;;;;;;;-140.72;100.00;56654.31;5097579;28;20293;-73
2023/12/05 03:46:38;;;;;;;;;;;;;;;-140.72;100.00;56678.69;5097040;28;19927;-74
2023/12/05 03:49:03;;;;;;;;;;;;;;;-140.72;100.00;56650.22;5097688;28;20006;-74
2023/12/05 03:51:28;;;;;;;;;;;;;;;-140.72;100.00;56646.19;5106233;28;20416;-73
2023/12/05 03:53:54;;;;;;;;;;;;;;;-140.72;100.00;56678.69;5079148;28;19920;-72
2023/12/05 03:56:19;;;;;;;;;;;;;;;-140.72;100.00;56658.38;5094274;28;19939;-73
2023/12/05 03:58:44;;;;;;;;;;;;;;;-140.72;100.00;56650.22;5100842;28;20454;-73
2023/12/05 04:01:09;;;;;;;;;;;;;;;-140.72;100.00;56686.81;5099210;28;19924;-73
2023/12/05 04:03:35;;;;;;;;;;;;;;;-140.72;100.00;56652.28;5099472;28;20037;-72
2023/12/05 04:06:00;;;;;;;;;;;;;;;-140.72;100.00;56666.50;5095515;28;19920;-72
2023/12/05 04:08:26;;;;;;;;;;;;;;;-140.72;100.00;56662.41;5099943;28;19920;-72
2023/12/05 04:10:51;;;;;;;;;;;;;;;-140.72;100.00;56619.75;5101974;28;20007;-72
2023/12/05 04:13:16;;;;;;;;;;;;;;;-140.72;100.00;56644.13;5085891;28;19965;-72
2023/12/05 04:15:41;;;;;;;;;;;;;;;-140.72;100.00;56627.91;5075111;28;20389;-72
2023/12/05 04:18:07;;;;;;;;;;;;;;;-140.72;100.00;56609.63;5104577;28;19916;-72
2023/12/05 04:20:32;;;;;;;;;;;;;;;-140.72;100.00;56607.56;5102841;28;19916;-72
2023/12/05 04:22:57;;;;;;;;;;;;;;;-140.72;100.00;56601.47;5092717;28;19923;-72
2023/12/05 04:25:23;;;;;;;;;;;;;;;-140.72;100.00;56636.00;5085181;28;19947;-72
2023/12/05 04:27:48;;;;;;;;;;;;;;;-140.72;100.00;56603.53;5100251;28;19920;-72
2023/12/05 04:30:13;;;;;;;;;;;;;;;-140.72;100.00;56603.53;5100249;28;20288;-72
2023/12/05 04:32:38;;;;;;;;;;;;;;;-140.72;100.00;56589.28;5093802;28;20029;-72
2023/12/05 04:35:04;;;;;;;;;;;;;;;-140.72;100.00;56607.56;5083992;28;19920;-72
2023/12/05 04:37:29;;;;;;;;;;;;;;;-140.72;100.00;56621.81;5100912;28;20294;-73
2023/12/05 04:39:54;;;;;;;;;;;;;;;-140.72;100.00;56634.00;5100459;28;19955;-72
2023/12/05 04:42:19;;;;;;;;;;;;;;;-140.72;100.00;56609.63;5101156;28;19935;-73
2023/12/05 04:44:45;;;;;;;;;;;;;;;-140.72;100.00;56573.03;5093821;28;19931;-73
2023/12/05 04:47:10;;;;;;;;;;;;;;;-140.72;100.00;56589.28;5083191;28;19920;-73
2023/12/05 04:49:35;;;;;;;;;;;;;;;-140.72;100.00;56597.44;5076514;28;19965;-73
2023/12/05 04:52:00;;;;;;;;;;;;;;;-140.72;100.00;56579.13;5100341;28;20270;-74
2023/12/05 04:54:26;;;;;;;;;;;;;;;-140.72;100.00;56550.69;5095241;28;20051;-73
2023/12/05 04:56:51;;;;;;;;;;;;;;;-140.72;100.00;56550.69;5094325;28;20013;-73
2023/12/05 04:59:16;;;;;;;;;;;;;;;-140.72;100.00;56556.78;5096165;28;20386;-73
2023/12/05 05:01:41;;;;;;;;;;;;;;;-140.72;100.00;56528.34;5101338;28;20353;-73
2023/12/05 05:04:06;;;;;;;;;;;;;;;-140.72;100.00;56560.84;5100798;28;19924;-74
2023/12/05 05:06:32;;;;;;;;;;;;;;;-140.72;100.00;56522.25;5086609;28;19964;-73
2023/12/05 05:08:57;;;;;;;;;;;;;;;-140.72;100.00;56524.28;5097551;28;20361;-73
2023/12/05 05:11:23;;;;;;;;;;;;;;;-140.72;100.00;56491.78;5100193;28;20333;-73
2023/12/05 05:13:48;;;;;;;;;;;;;;;-140.72;100.00;56495.88;5085785;28;20321;-76
2023/12/05 05:16:13;;;;;;;;;;;;;;;-140.72;100.00;56487.72;5099627;28;19919;-73
2023/12/05 05:18:39;;;;;;;;;;;;;;;-140.72;100.00;56536.47;5100546;28;19920;-74
2023/12/05 05:21:05;;;;;;;;;;;;;;;-140.72;100.00;56481.63;5102616;28;19927;-73
2023/12/05 05:23:30;;;;;;;;;;;;;;;-140.72;100.00;56479.59;5082268;28;19956;-74
2023/12/05 05:25:55;;;;;;;;;;;;;;;-140.72;100.00;56493.81;5084161;28;19971;-73
2023/12/05 05:28:20;;;;;;;;;;;;;;;-140.72;100.00;56508.03;5085487;28;19920;-73
2023/12/05 05:30:46;;;;;;;;;;;;;;;-140.72;100.00;56479.59;5101484;28;19980;-72
2023/12/05 05:33:11;;;;;;;;;;;;;;;-140.72;100.00;56471.50;5099352;28;19920;-72
2023/12/05 05:35:36;;;;;;;;;;;;;;;-140.72;100.00;56453.22;5098226;28;19927;-72
2023/12/05 05:38:02;;;;;;;;;;;;;;;-140.72;100.00;56493.81;5083300;28;19963;-72
2023/12/05 05:40:27;;;;;;;;;;;;;;;-140.72;100.00;56491.78;5104410;28;20018;-72
2023/12/05 05:42:53;;;;;;;;;;;;;;;-140.72;100.00;56455.25;5105665;28;20020;-72
2023/12/05 05:45:18;;;;;;;;;;;;;;;-140.72;100.00;56459.31;5104236;28;19920;-72
2023/12/05 05:47:43;;;;;;;;;;;;;;;-140.72;100.00;56465.41;5104852;28;20251;-72
2023/12/05 05:50:08;;;;;;;;;;;;;;;-140.72;100.00;56441.03;5098451;28;20345;-73
2023/12/05 05:52:34;;;;;;;;;;;;;;;-140.72;100.00;56439.00;5091583;28;20298;-72
2023/12/05 05:54:59;;;;;;;;;;;;;;;-140.72;100.00;56443.06;5094658;28;19926;-72
2023/12/05 05:57:24;;;;;;;;;;;;;;;-140.72;100.00;56418.69;5100778;28;19931;-73
2023/12/05 05:59:49;;;;;;;;;;;;;;;-140.72;100.00;56418.69;5085596;28;20414;-73
2023/12/05 06:02:14;;;;;;;;;;;;;;;-140.72;100.00;56408.53;5108346;28;20374;-73
2023/12/05 06:04:40;;;;;;;;;;;;;;;-140.72;100.00;56367.91;5104711;28;20371;-74
2023/12/05 06:07:06;;;;;;;;;;;;;;;-140.72;100.00;56369.94;5097606;28;19920;-73
2023/12/05 06:09:31;;;;;;;;;;;;;;;-140.72;100.00;56337.44;5107708;28;19920;-76
2023/12/05 06:11:56;;;;;;;;;;;;;;;-140.72;100.00;56400.41;5080655;28;19932;-72
2023/12/05 06:14:21;;;;;;;;;;;;;;;-140.72;100.00;56333.38;5092549;28;19920;-72
2023/12/05 06:16:47;;;;;;;;;;;;;;;-140.72;100.00;56365.88;5099694;28;19920;-72
2023/12/05 06:19:12;;;;;;;;;;;;;;;-140.72;100.00;56335.41;5098765;28;19927;-72
2023/12/05 06:21:37;;;;;;;;;;;;;;;-140.72;100.00;56306.97;5105886;28;19919;-72
2023/12/05 06:24:03;;;;;;;;;;;;;;;-140.72;100.00;56313.06;5096755;28;19920;-72
2023/12/05 06:26:28;;;;;;;;;;;;;;;-140.72;100.00;56313.06;5087731;28;19965;-72
2023/12/05 06:28:53;;;;;;;;;;;;;;;-140.72;100.00;56252.13;5104607;28;19926;-72
2023/12/05 06:31:18;;;;;;;;;;;;;;;-140.72;100.00;56221.66;5104298;28;20392;-73
2023/12/05 06:33:44;;;;;;;;;;;;;;;-140.72;100.00;56292.75;5084762;28;19920;-73
2023/12/05 06:36:10;;;;;;;;;;;;;;;-140.72;100.00;56284.63;5102481;28;19927;-73
2023/12/05 06:38:35;;;;;;;;;;;;;;;-140.72;100.00;56270.41;5103386;28;20390;-73
2023/12/05 06:41:01;;;;;;;;;;;;;;;-140.72;100.00;56272.44;5098089;28;20005;-73
2023/12/05 06:43:26;;;;;;;;;;;;;;;-140.72;100.00;56272.44;5099894;28;19920;-72
2023/12/05 06:45:51;;;;;;;;;;;;;;;-140.72;100.00;56304.94;5098696;28;19982;-72
2023/12/05 06:48:16;;;;;;;;;;;;;;;-140.72;100.00;56252.13;5094165;28;19939;-73
2023/12/05 06:50:45;;;;;;;;;;;;;;;-140.72;100.00;56300.88;5077417;28;19939;-74
2023/12/05 06:53:10;;;;;;;;;;;;;;;-140.72;100.00;56280.56;5080718;28;19927;-73
2023/12/05 06:55:35;;;;;;;;;;;;;;;-140.72;100.00;56213.53;5083495;28;20014;-75
2023/12/05 06:58:00;;;;;;;;;;;;;;;-140.72;100.00;56244.00;5101065;28;19919;-73
2023/12/05 07:00:26;;;;;;;;;;;;;;;-140.72;100.00;56246.03;5093300;28;19927;-74
2023/12/05 07:02:51;;;;;;;;;;;;;;;-140.72;100.00;56217.59;5083762;28;19919;-74
2023/12/05 07:05:16;;;;;;;;;;;;;;;-140.72;100.00;56239.94;5094032;28;19944;-74
2023/12/05 07:07:41;;;;;;;;;;;;;;;-140.72;100.00;56237.91;5105923;28;19928;-71
2023/12/05 07:10:07;;;;;;;;;;;;;;;-140.72;100.00;56244.00;5077168;28;19924;-77
2023/12/05 07:12:32;;;;;;;;;;;;;;;-140.72;100.00;56219.63;5099999;28;19920;-75
2023/12/05 07:14:58;;;;;;;;;;;;;;;-140.72;100.00;56197.28;5097402;28;19931;-74
2023/12/05 07:17:23;;;;;;;;;;;;;;;-140.72;100.00;56211.50;5071328;28;19917;-73
2023/12/05 07:19:48;;;;;;;;;;;;;;;-140.72;100.00;56229.78;5093769;28;19999;-72
2023/12/05 07:22:13;;;;;;;;;;;;;;;-140.72;100.00;56189.16;5073553;28;19959;-73
2023/12/05 07:24:38;;;;;;;;;;;;;;;-140.72;100.00;56162.75;5100221;28;20419;-74
2023/12/05 07:27:04;;;;;;;;;;;;;;;-140.72;100.00;56187.13;5093212;28;20459;-73
2023/12/05 07:29:29;;;;;;;;;;;;;;;-140.72;100.00;56203.38;5091764;28;20278;-73
2023/12/05 07:31:54;;;;;;;;;;;;;;;-140.72;100.00;56158.69;5069272;28;19931;-74
2023/12/05 07:34:19;;;;;;;;;;;;;;;-140.72;100.00;56154.63;5074673;28;19916;-74
2023/12/05 07:36:45;;;;;;;;;;;;;;;-140.72;100.00;56189.16;5074964;28;19981;-73
2023/12/05 07:39:12;;;;;;;;;;;;;;;-140.72;100.00;56162.75;5083334;28;19999;-73
2023/12/05 07:41:39;;;;;;;;;;;;;;;-140.72;100.00;56185.09;5085648;28;19939;-73
2023/12/05 07:44:05;;;;;;;;;;;;;;;-140.72;100.00;56162.75;5099554;28;19967;-73
2023/12/05 07:46:30;;;;;;;;;;;;;;;-140.72;100.00;56166.81;5079469;28;19986;-73
2023/12/05 07:48:56;;;;;;;;;;;;;;;-140.72;100.00;56181.03;5091633;28;20406;-73
2023/12/05 07:51:21;;;;;;;;;;;;;;;-140.72;100.00;56176.97;5091594;28;20335;-72
2023/12/05 07:53:48;;;;;;;;;;;;;;;-140.72;100.00;56199.31;5086817;28;20278;-73
2023/12/05 07:56:13;;;;;;;;;;;;;;;-140.72;100.00;56183.06;5096999;28;20230;-73
2023/12/05 07:58:38;;;;;;;;;;;;;;;-140.72;100.00;56162.75;5097420;28;20019;-73
2023/12/05 08:01:04;;;;;;;;;;;;;;;-140.72;100.00;56148.53;5096895;28;20022;-73
2023/12/05 08:03:36;;;;;;;;;;;;;;;-140.72;100.00;56187.13;5107251;28;19967;-75
2023/12/05 08:06:02;;;;;;;;;;;;;;;-140.72;100.00;56193.22;5092175;28;19916;-73
2023/12/05 08:08:30;;;;;;;;;;;;;;;-140.72;100.00;56158.69;5084653;28;19988;-74
2023/12/05 08:10:58;;;;;;;;;;;;;;;-140.72;100.00;56166.81;5095257;28;19920;-75
2023/12/05 08:13:23;;;;;;;;;;;;;;;-140.72;100.00;56146.50;5077883;28;19927;-77
2023/12/05 08:15:49;;;;;;;;;;;;;;;-140.72;100.00;56166.81;5074060;28;19982;-76
2023/12/05 08:18:27;;;;;;;;;;;;;;;-140.72;100.00;56118.06;5076624;28;19946;-75
2023/12/05 08:20:52;;;;;;;;;;;;;;;-140.72;100.00;56142.44;5092298;28;19917;-75
2023/12/05 08:23:19;;;;;;;;;;;;;;;-140.72;100.00;56111.97;5088893;28;19973;-74
2023/12/05 08:25:44;;;;;;;;;;;;;;;-140.72;100.00;56109.94;5079704;28;20357;-77
2023/12/05 08:28:09;;;;;;;;;;;;;;;-140.72;100.00;56091.66;5083097;28;19960;-74
2023/12/05 08:30:35;;;;;;;;;;;;;;;-140.72;100.00;56158.69;5085045;28;19929;-74
2023/12/05 08:33:00;;;;;;;;;;;;;;;-140.72;100.00;56089.63;5074397;28;19939;-74
2023/12/05 08:35:26;;;;;;;;;;;;;;;-140.72;100.00;56114.00;5078931;28;19981;-74
2023/12/05 08:37:51;;;;;;;;;;;;;;;-140.72;100.00;56093.69;5085296;28;19941;-76
2023/12/05 08:40:17;;;;;;;;;;;;;;;-140.72;100.00;56087.59;5094151;28;20423;-75
2023/12/05 08:42:42;;;;;;;;;;;;;;;-140.72;100.00;56083.53;5096165;28;20015;-75
2023/12/05 08:45:11;;;;;;;;;;;;;;;-140.72;100.00;56026.69;5099705;28;19931;-75
2023/12/05 08:47:37;;;;;;;;;;;;;;;-140.72;100.00;56047.00;5088135;28;20032;-74
2023/12/05 08:50:02;;;;;;;;;;;;;;;-140.72;100.00;56032.78;5071967;28;19954;-74
2023/12/05 08:52:28;;;;;;;;;;;;;;;-140.72;100.00;55965.75;5094551;28;19931;-74
2023/12/05 08:54:53;;;;;;;;;;;;;;;-140.72;100.00;55984.03;5097868;28;19930;-74
2023/12/05 08:57:18;;;;;;;;;;;;;;;-140.72;100.00;56006.38;5094253;28;19920;-74
2023/12/05 08:59:44;;;;;;;;;;;;;;;-140.72;100.00;55955.59;5104829;28;20158;-75
2023/12/05 09:02:09;;;;;;;;;;;;;;;-140.72;100.00;55949.50;5095401;28;19943;-75
2023/12/05 09:04:36;;;;;;;;;;;;;;;-140.72;100.00;55927.16;5107372;28;20025;-80
2023/12/05 09:07:01;;;;;;;;;;;;;;;-140.72;100.00;55967.78;5095334;28;20455;-75
2023/12/05 09:09:27;;;;;;;;;;;;;;;-140.72;100.00;55904.81;5087669;28;19976;-75
2023/12/05 09:11:52;;;;;;;;;;;;;;;-140.72;100.00;55914.97;5100138;28;19964;-77
2023/12/05 09:14:17;;;;;;;;;;;;;;;-140.72;100.00;55908.88;5069152;28;19956;-78
2023/12/05 09:16:42;;;;;;;;;;;;;;;-140.72;100.00;55880.44;5077113;28;20341;-78
2023/12/05 09:19:08;;;;;;;;;;;;;;;-140.72;100.00;55888.56;5098059;28;20407;-78
2023/12/05 09:21:34;;;;;;;;;;;;;;;-140.72;100.00;55880.44;5098445;28;19956;-78
2023/12/05 09:24:00;;;;;;;;;;;;;;;-140.72;100.00;55837.81;5069153;28;19928;-76
2023/12/05 09:26:25;;;;;;;;;;;;;;;-140.72;100.00;55868.25;5094627;28;19919;-76
2023/12/05 09:28:50;;;;;;;;;;;;;;;-140.72;100.00;55845.94;5080282;28;19935;-76
2023/12/05 09:31:16;;;;;;;;;;;;;;;-140.72;100.00;55862.16;5100605;28;19955;-76
2023/12/05 09:33:41;;;;;;;;;;;;;;;-140.72;100.00;55799.22;5085051;28;20297;-76
2023/12/05 09:36:06;;;;;;;;;;;;;;;-140.72;100.00;55776.88;5083122;28;20282;-76
2023/12/05 09:38:33;;;;;;;;;;;;;;;-140.72;100.00;55782.97;5077541;28;19926;-76
2023/12/05 09:40:58;;;;;;;;;;;;;;;-140.72;100.00;55756.56;5076761;28;19955;-76
2023/12/05 09:43:24;;;;;;;;;;;;;;;-140.72;100.00;55746.41;5068821;28;19955;-75
2023/12/05 09:45:58;;;;;;;;;;;;;;;-140.72;100.00;55799.22;5077489;28;19916;-76
2023/12/05 09:48:25;;;;;;;;;;;;;;;-140.72;100.00;55766.72;5080319;28;19942;-77
2023/12/05 09:50:51;;;;;;;;;;;;;;;-140.72;100.00;55730.16;5092911;28;19919;-76
2023/12/05 09:53:17;;;;;;;;;;;;;;;-140.72;100.00;55760.63;5075941;28;19974;-76
2023/12/05 09:55:43;;;;;;;;;;;;;;;-140.72;100.00;55768.75;5074559;28;19928;-76
2023/12/05 09:58:09;;;;;;;;;;;;;;;-140.72;100.00;55770.78;5091398;28;20274;-76
2023/12/05 10:00:34;;;;;;;;;;;;;;;-140.72;100.00;55787.03;5091543;28;19916;-76
2023/12/05 10:03:04;;;;;;;;;;;;;;;-140.72;100.00;55760.63;5081582;28;19923;-75
2023/12/05 10:05:32;;;;;;;;;;;;;;;-140.72;100.00;55772.81;5087110;28;19967;-76
2023/12/05 10:07:57;;;;;;;;;;;;;;;-140.72;100.00;55748.44;5098714;28;20237;-76
2023/12/05 10:10:22;;;;;;;;;;;;;;;-140.72;100.00;55772.81;5088399;28;19916;-75
2023/12/05 10:12:48;;;;;;;;;;;;;;;-140.72;100.00;55746.41;5083403;28;20340;-76
2023/12/05 10:15:14;;;;;;;;;;;;;;;-140.72;100.00;55772.81;5101039;28;20039;-76
2023/12/05 10:17:39;;;;;;;;;;;;;;;-140.72;100.00;55760.63;5075917;28;19939;-76
2023/12/05 10:20:05;;;;;;;;;;;;;;;-140.72;100.00;55780.94;5081216;28;19924;-76
2023/12/05 10:22:31;;;;;;;;;;;;;;;-140.72;100.00;55728.13;5091885;28;19943;-76
2023/12/05 10:24:56;;;;;;;;;;;;;;;-140.72;100.00;55760.63;5091805;28;19924;-76
2023/12/05 10:27:21;;;;;;;;;;;;;;;-140.72;100.00;55746.41;5070942;28;19955;-76
2023/12/05 10:29:46;;;;;;;;;;;;;;;-140.72;100.00;55734.22;5074738;28;19916;-76
2023/12/05 10:32:12;;;;;;;;;;;;;;;-140.72;100.00;55722.03;5087083;28;19964;-76
2023/12/05 10:34:51;;;;;;;;;;;;;;;-140.72;100.00;55693.59;5093164;28;20373;-77
2023/12/05 10:37:23;;;;;;;;;;;;;;;-140.72;100.00;55724.06;5075213;28;19924;-76
2023/12/05 10:39:52;;;;;;;;;;;;;;;-140.72;100.00;55687.50;5081672;28;19984;-74
2023/12/05 10:42:19;;;;;;;;;;;;;;;-140.72;100.00;55669.25;5096618;28;19932;-80
2023/12/05 10:44:44;;;;;;;;;;;;;;;-140.72;100.00;55669.25;5072645;28;19936;-76
2023/12/05 10:47:10;;;;;;;;;;;;;;;-140.72;100.00;55642.84;5090768;28;19919;-75
2023/12/05 10:49:35;;;;;;;;;;;;;;;-140.72;100.00;55701.72;5090809;28;19924;-77
2023/12/05 10:52:02;;;;;;;;;;;;;;;-140.72;100.00;55667.22;5072728;28;20297;-75
2023/12/05 10:54:28;;;;;;;;;;;;;;;-140.72;100.00;55685.50;5077207;28;19921;-75
2023/12/05 10:56:57;;;;;;;;;;;;;;;-140.72;100.00;55648.94;5080883;28;19928;-77
2023/12/05 10:59:23;;;;;;;;;;;;;;;-140.72;100.00;55624.56;5077582;28;19942;-73
2023/12/05 11:01:49;;;;;;;;;;;;;;;-140.72;100.00;55646.91;5069566;28;19939;-75
2023/12/05 11:04:16;;;;;;;;;;;;;;;-140.72;100.00;55638.78;5071572;28;19917;-74
2023/12/05 11:06:41;;;;;;;;;;;;;;;-140.72;100.00;55628.63;5064721;28;19920;-74
2023/12/05 11:09:07;;;;;;;;;;;;;;;-140.72;100.00;55622.53;5072293;28;19980;-74
2023/12/05 11:11:33;;;;;;;;;;;;;;;-140.72;100.00;55632.69;5069800;28;20374;-74
2023/12/05 11:13:59;;;;;;;;;;;;;;;-140.72;100.00;55640.81;5059234;28;19928;-73
2023/12/05 11:16:27;;;;;;;;;;;;;;;-140.72;100.00;55636.75;5075688;28;19920;-74
2023/12/05 11:19:02;;;;;;;;;;;;;;;-140.72;100.00;55616.44;5075152;28;19916;-74
2023/12/05 11:21:27;;;;;;;;;;;;;;;-140.72;100.00;55640.81;5084955;28;19927;-74
2023/12/05 11:24:02;;;;;;;;;;;;;;;-140.72;100.00;55622.53;5070752;28;20262;-74
2023/12/05 11:26:34;;;;;;;;;;;;;;;-140.72;100.00;55628.63;5066242;28;19916;-74
2023/12/05 11:29:03;;;;;;;;;;;;;;;-140.72;100.00;55677.38;5062045;28;20386;-74
2023/12/05 11:31:37;;;;;;;;;;;;;;;-140.72;100.00;55653.00;5069528;28;20028;-74
2023/12/05 11:34:02;;;;;;;;;;;;;;;-140.72;100.00;55640.81;5075860;28;19916;-74
2023/12/05 11:36:29;;;;;;;;;;;;;;;-140.72;100.00;55655.03;5074286;28;20302;-74
2023/12/05 11:38:55;;;;;;;;;;;;;;;-140.72;100.00;55624.56;5070719;28;19916;-74
2023/12/05 11:41:20;;;;;;;;;;;;;;;-140.72;100.00;55638.78;5072245;28;19917;-74
2023/12/05 11:44:04;;;;;;;;;;;;;;;-140.72;100.00;55636.75;5064797;28;20009;-74
2023/12/05 11:46:36;;;;;;;;;;;;;;;-140.72;100.00;55655.03;5061783;28;19927;-74
2023/12/05 11:49:01;;;;;;;;;;;;;;;-140.72;100.00;55606.28;5071713;28;19916;-74
2023/12/05 11:51:29;;;;;;;;;;;;;;;-140.72;100.00;55612.38;5075562;28;19921;-76
2023/12/05 11:54:07;;;;;;;;;;;;;;;-140.72;100.00;55636.75;5077993;28;19929;-74
2023/12/05 11:56:32;;;;;;;;;;;;;;;-140.72;100.00;55624.56;5090762;28;19927;-76
2023/12/05 11:59:10;;;;;;;;;;;;;;;-140.72;100.00;55594.09;5066558;28;19920;-74
2023/12/05 12:01:35;;;;;;;;;;;;;;;-140.72;100.00;55577.84;5078452;28;20006;-76
2023/12/05 12:04:00;;;;;;;;;;;;;;;-140.72;100.00;55588.00;5072963;28;19955;-75
2023/12/05 12:06:26;;;;;;;;;;;;;;;-140.72;100.00;55573.78;5070494;28;19927;-77
2023/12/05 12:08:56;;;;;;;;;;;;;;;-140.72;100.00;55541.31;5074668;28;20019;-76
2023/12/05 12:11:22;;;;;;;;;;;;;;;-140.72;100.00;55557.56;5076703;28;19931;-73
2023/12/05 12:13:48;;;;;;;;;;;;;;;-140.72;100.00;55541.31;5096638;28;19920;-76